FW6150 Weather Reports


time (UTC)temp
C
wind
direction
speed
KPH
gust
KPH
rain 1hr
cm
rain 24hr
cm
rain mn
cm
humidity
%
barometer
mb
20200229104015 16 0.0 0.0 0.00 0.00 0.00 71 1025.5
20200229103016 16 0.0 3.2 0.00 0.00 0.00 70 1025.6
20200229102016 16 45 3.2 4.8 0.00 0.00 0.00 70 1025.7
20200229101015 16 45 3.2 4.8 0.00 0.00 0.00 71 1025.9
20200229100016 16 45 3.2 4.8 0.00 0.00 0.00 73 1026.1
20200229095015 16 45 3.2 4.8 0.00 0.00 0.00 73 1026.2
20200229094016 16 45 1.6 3.2 0.00 0.00 0.00 73 1026.3
20200229093015 16 45 3.2 4.8 0.00 0.00 0.00 72 1026.2
20200229092015 15 45 3.2 4.8 0.00 0.00 0.00 73 1026.3
20200229091015 15 292 1.6 3.2 0.00 0.00 0.00 75 1026.5
20200229090015 15 292 1.6 3.2 0.00 0.00 0.00 76 1026.8
20200229085015 15 292 3.2 4.8 0.00 0.00 0.00 76 1027.0
20200229084015 15 292 1.6 3.2 0.00 0.00 0.00 76 1027.1
20200229083015 15 292 1.6 3.2 0.00 0.00 0.00 76 1027.2
20200229082015 14 292 1.6 3.2 0.00 0.00 0.00 77 1027.2
20200229081015 14 292 1.6 3.2 0.00 0.00 0.00 77 1027.3
20200229080015 14 247 3.2 4.8 0.00 0.00 0.00 77 1027.4
20200229075015 15 247 1.6 3.2 0.00 0.00 0.00 78 1027.6
20200229074015 15 0.0 1.6 0.00 0.00 0.00 77 1027.8
20200229073017 15 247 1.6 3.2 0.00 0.00 0.00 76 1028.0
20200229072017 15 247 1.6 4.8 0.00 0.00 0.00 78 1028.1
20200229071017 15 247 3.2 4.8 0.00 0.00 0.00 78 1028.2
20200229070017 14 247 3.2 4.8 0.00 0.00 0.00 78 1028.2
20200229065018 14 247 3.2 4.8 0.00 0.00 0.00 78 1028.2
20200229064017 14 247 3.2 4.8 0.00 0.00 0.00 77 1028.4
20200229063017 14 247 4.8 6.4 0.00 0.00 0.00 76 1028.4
20200229062017 15 247 4.8 6.4 0.00 0.00 0.00 75 1028.6
20200229061017 15 225 4.8 6.4 0.00 0.00 0.00 75 1028.9
20200229060017 15 247 4.8 8.0 0.00 0.00 0.00 74 1029.0
20200229055016 15 225 6.4 9.7 0.00 0.00 0.00 74 1029.0
20200229054016 15 247 6.4 11.3 0.00 0.00 0.00 73 1029.2
20200229053015 15 247 6.4 8.0 0.00 0.00 0.00 72 1029.2
20200229052015 16 180 6.4 8.0 0.00 0.00 0.00 71 1029.1
20200229051016 16 112 3.2 4.8 0.00 0.00 0.00 70 1029.2
20200229050016 16 112 1.6 3.2 0.00 0.00 0.00 70 1029.1
20200229045015 16 112 1.6 3.2 0.00 0.00 0.00 70 1029.1
20200229044016 16 112 3.2 4.8 0.00 0.00 0.00 70 1029.0
20200229043015 16 112 3.2 4.8 0.00 0.00 0.00 69 1029.0
20200229042015 16 112 3.2 6.4 0.00 0.00 0.00 68 1028.9
20200229041015 16 112 3.2 4.8 0.00 0.00 0.00 67 1028.9
20200229040015 17 112 6.4 11.3 0.00 0.00 0.00 66 1028.8
20200229035015 17 90 8.0 11.3 0.00 0.00 0.00 65 1028.6
20200229034015 17 90 11.3 17.7 0.00 0.00 0.00 64 1028.4
20200229033016 17 90 12.9 17.7 0.00 0.00 0.00 63 1028.4
20200229032017 17 90 12.9 16.1 0.00 0.00 0.00 62 1028.3
20200229031017 18 90 11.3 14.5 0.00 0.00 0.00 61 1028.3
20200229030017 18 90 11.3 16.1 0.00 0.00 0.00 60 1028.1
20200229025017 18 90 16.1 20.9 0.00 0.00 0.00 60 1028.1
20200229024017 18 90 14.5 19.3 0.00 0.00 0.00 60 1028.1
20200229023016 18 90 16.1 22.5 0.00 0.00 0.00 60 1027.9
20200229022017 19 90 14.5 20.9 0.00 0.00 0.00 60 1028.0
20200229021017 19 90 14.5 20.9 0.00 0.00 0.00 60 1027.6
20200229020017 19 90 17.7 24.1 0.00 0.00 0.00 59 1027.2
20200229015017 20 90 16.1 20.9 0.00 0.00 0.00 58 1027.1
20200229014018 20 112 17.7 24.1 0.00 0.00 0.00 58 1026.9
20200229013017 20 112 16.1 25.7 0.00 0.00 0.00 57 1026.7
20200229012017 20 112 19.3 27.4 0.00 0.00 0.00 56 1026.6
20200229011017 21 90 20.9 29.0 0.00 0.00 0.00 55 1026.3
20200229010017 21 90 20.9 32.2 0.00 0.00 0.00 54 1026.4
20200229005017 21 90 17.7 24.1 0.00 0.00 0.00 54 1026.2
20200229004017 22 90 24.1 32.2 0.00 0.00 0.00 52 1026.0
20200229003018 22 90 24.1 37.0 0.00 0.00 0.00 50 1025.9
20200229002017 23 112 16.1 24.1 0.00 0.00 0.00 46 1025.8
20200229001017 23 157 12.9 19.3 0.00 0.00 0.00 44 1025.6
20200229000017 24 157 16.1 24.1 0.00 0.00 0.00 43 1025.5
20200228235017 24 180 12.9 19.3 0.00 0.00 0.00 43 1025.6
20200228234017 25 180 12.9 22.5 0.00 0.00 0.00 42 1025.5
20200228233017 25 157 9.7 16.1 0.00 0.00 0.00 42 1025.4
20200228232017 25 135 11.3 22.5 0.00 0.00 0.00 41 1025.3
20200228231017 25 157 9.7 17.7 0.00 0.00 0.00 41 1025.2
20200228230017 25 112 6.4 12.9 0.00 0.00 0.00 41 1025.0
20200228225017 25 180 9.7 16.1 0.00 0.00 0.00 41 1025.0
20200228224017 25 135 12.9 19.3 0.00 0.00 0.00 42 1025.0
20200228223017 25 135 14.5 20.9 0.00 0.00 0.00 41 1025.1
20200228222017 25 135 8.0 19.3 0.00 0.00 0.00 41 1024.9
20200228221017 25 157 12.9 20.9 0.00 0.00 0.00 40 1025.2
20200228220016 25 225 8.0 14.5 0.00 0.00 0.00 40 1025.2
20200228215016 25 135 8.0 19.3 0.00 0.00 0.00 40 1025.1
20200228214017 25 180 11.3 24.1 0.00 0.00 0.00 40 1025.2
20200228213017 25 135 9.7 20.9 0.00 0.00 0.00 40 1025.4
20200228212017 25 157 9.7 17.7 0.00 0.00 0.00 39 1025.4
20200228211016 25 180 12.9 19.3 0.00 0.00 0.00 40 1025.4
20200228210016 25 180 6.4 12.9 0.00 0.00 0.00 39 1025.4
20200228205017 25 135 12.9 19.3 0.00 0.00 0.00 41 1025.7
20200228204016 25 90 8.0 22.5 0.00 0.00 0.00 40 1025.6
20200228203016 24 112 11.3 19.3 0.00 0.00 0.00 39 1025.6
20200228202022 24 135 9.7 17.7 0.00 0.00 0.00 39 1025.8
20200228201016 25 157 9.7 20.9 0.00 0.00 0.00 39 1026.0
20200228200016 24 202 6.4 12.9 0.00 0.00 0.00 41 1026.3
20200228195016 24 135 3.2 12.9 0.00 0.00 0.00 40 1026.3
20200228194016 23 157 9.7 16.1 0.00 0.00 0.00 41 1026.7
20200228193016 23 202 9.7 16.1 0.00 0.00 0.00 41 1027.0
20200228192016 23 180 11.3 20.9 0.00 0.00 0.00 41 1027.1
20200228191016 23 202 11.3 17.7 0.00 0.00 0.00 42 1027.4
20200228190018 23 135 9.7 17.7 0.00 0.00 0.00 42 1027.7
20200228185016 23 135 9.7 19.3 0.00 0.00 0.00 43 1027.8
20200228184017 23 45 3.2 8.0 0.00 0.00 0.00 41 1027.9
20200228183016 23 202 9.7 19.3 0.00 0.00 0.00 41 1028.1
20200228182017 23 157 11.3 19.3 0.00 0.00 0.00 43 1028.1
20200228181016 22 225 4.8 12.9 0.00 0.00 0.00 43 1028.4
20200228180017 22 157 6.4 17.7 0.00 0.00 0.00 43 1028.7
20200228175017 22 90 6.4 11.3 0.00 0.00 0.00 44 1029.0
20200228174016 21 225 4.8 8.0 0.00 0.00 0.00 44 1029.1
20200228173016 21 247 3.2 6.4 0.00 0.00 0.00 45 1029.3
20200228172016 21 225 3.2 8.0 0.00 0.00 0.00 45 1029.5
20200228171016 21 292 6.4 12.9 0.00 0.00 0.00 46 1029.5
20200228170016 21 157 3.2 9.7 0.00 0.00 0.00 46 1029.6
20200228165016 20 225 6.4 11.3 0.00 0.00 0.00 47 1029.6
20200228164016 20 180 4.8 12.9 0.00 0.00 0.00 47 1029.6
20200228163016 20 157 4.8 9.7 0.00 0.00 0.00 49 1029.7
20200228162016 19 337 3.2 11.3 0.00 0.00 0.00 48 1029.6
20200228161016 19 247 1.6 8.0 0.00 0.00 0.00 48 1029.6
20200228160016 18 315 4.8 8.0 0.00 0.00 0.00 48 1029.6
20200228155016 18 315 1.6 4.8 0.00 0.00 0.00 49 1029.7
20200228154016 18 0.0 3.2 0.00 0.00 0.00 51 1029.5
20200228153016 17 270 1.6 4.8 0.00 0.00 0.00 51 1029.4
20200228152016 16 0.0 1.6 0.00 0.00 0.00 54 1029.4
20200228151016 16 225 1.6 3.2 0.00 0.00 0.00 56 1029.1
20200228150016 15 225 1.6 3.2 0.00 0.00 0.00 58 1029.1
20200228145016 13 225 1.6 4.8 0.00 0.00 0.00 60 1028.8
20200228144016 13 292 1.6 3.2 0.00 0.00 0.00 63 1028.7
20200228143016 12 292 3.2 4.8 0.00 0.00 0.00 65 1028.8
20200228142016 12 315 3.2 4.8 0.00 0.00 0.00 67 1028.8
20200228141016 11 337 3.2 4.8 0.00 0.00 0.00 70 1028.8
20200228140016 10 292 4.8 9.7 0.00 0.00 0.00 72 1029.0
20200228135016 10 0.0 1.6 0.00 0.00 0.00 73 1028.6
20200228134016 8 0.0 1.6 0.00 0.00 0.00 75 1028.6
20200228133016 8 270 1.6 3.2 0.00 0.00 0.00 75 1028.4
20200228132016 8 270 3.2 3.2 0.00 0.00 0.00 77 1028.1
20200228131016 8 270 1.6 3.2 0.00 0.00 0.00 77 1027.9
20200228130016 8 270 3.2 4.8 0.00 0.00 0.00 77 1027.7
20200228125016 7 0.0 4.8 0.00 0.00 0.00 77 1027.6
20200228124016 7 67 1.6 3.2 0.00 0.00 0.00 76 1027.3
20200228123016 7 67 1.6 3.2 0.00 0.00 0.00 76 1027.3
20200228122016 7 67 1.6 1.6 0.00 0.00 0.00 78 1027.2
20200228121016 7 0.0 0.0 0.00 0.00 0.00 78 1027.1
20200228120016 7 0.0 3.2 0.00 0.00 0.00 76 1026.9
20200228115015 7 67 1.6 3.2 0.00 0.00 0.00 75 1026.7
20200228114016 8 67 3.2 4.8 0.00 0.00 0.00 77 1026.6
20200228113016 8 22 1.6 3.2 0.00 0.00 0.00 77 1026.6
20200228112016 8 0.0 1.6 0.00 0.00 0.00 76 1026.4
20200228111015 8 22 1.6 3.2 0.00 0.00 0.00 75 1026.5
20200228110016 8 22 3.2 4.8 0.00 0.00 0.00 76 1026.5
20200228105016 7 22 3.2 4.8 0.00 0.00 0.00 76 1026.4